Time;durP1;ratioP1;P1;durP2;ratioP2;P2;SDS_P1;SDS_P2;PMS_P1;PMS_P2;Temp;Humidity;BMP_temperature;BMP_pressure;BME280_temperature;BME280_humidity;BME280_pressure;Samples;Min_cycle;Max_cycle;Signal;HPM_P1;HPM_P2
2023/03/10 00:23:22;;;;;;;;;;;;;;;;;;;;;
2023/03/10 00:29:53;;;;;;;;;;;;;;;;;;;;;
2023/03/10 00:40:23;;;;;;;;;;;;;;;;;;;;;
2023/03/10 00:43:27;;;;;;;15.55;12.15;;;1.00;99.90;;;;;;5980065;23;20538;-82
2023/03/10 00:54:00;;;;;;;15.43;13.23;;;0.70;99.90;;;;;;5862611;24;20025;-83
2023/03/10 01:03:39;;;;;;;17.83;13.35;;;1.00;99.90;;;;;;5873524;24;20555;-81
2023/03/10 01:06:52;;;;;;;17.70;13.95;;;1.00;99.90;;;;;;5969894;23;20027;-82
2023/03/10 01:10:22;;;;;;;;;;;;;;;;;;;;;
2023/03/10 01:17:23;;;;;;;16.05;13.63;;;0.10;99.90;;;;;;5973056;24;20020;-82
2023/03/10 01:20:17;;;;;;;18.92;14.55;;;1.30;99.90;;;;;;6045001;23;20433;-82
2023/03/10 01:22:54;;;;;;;17.75;14.02;;;1.50;99.90;;;;;;6044341;23;20018;-82
2023/03/10 01:29:19;;;;;;;20.48;14.52;;;2.30;99.90;;;;;;6081745;23;20034;-82
2023/03/10 01:32:39;;;;;;;15.27;12.93;;;1.10;99.90;;;;;;6060695;23;20015;-83
2023/03/10 01:35:25;;;;;;;;;;;;;;;;;;;;;
2023/03/10 01:41:43;;;;;;;16.17;12.65;;;1.10;99.90;;;;;;6067549;23;20023;-83
2023/03/10 01:47:52;;;;;;;16.88;12.57;;;0.70;99.90;;;;;;6034037;23;20046;-83
2023/03/10 01:51:03;;;;;;;16.30;13.32;;;1.10;99.90;;;;;;5988497;23;20015;-83
2023/03/10 01:54:08;;;;;;;;;;;;;;;;;;;;;
2023/03/10 01:56:53;;;;;;;18.67;14.45;;;0.90;99.90;;;;;;6060603;23;20019;-83
2023/03/10 01:59:30;;;;;;;16.55;13.10;;;1.10;99.90;;;;;;6043025;23;20645;-84
2023/03/10 02:02:11;;;;;;;18.33;13.38;;;1.10;99.90;;;;;;6041306;23;20018;-84
2023/03/10 02:05:22;;;;;;;16.30;13.98;;;0.70;99.90;;;;;;6064632;23;20535;-84
2023/03/10 02:08:12;;;;;;;18.80;13.95;;;1.20;99.90;;;;;;6064953;23;20527;-84
2023/03/10 02:11:28;;;;;;;16.85;13.63;;;0.90;99.90;;;;;;6064701;23;20045;-83
2023/03/10 02:17:57;;;;;;;;;;;0.50;99.90;;;;;;6055604;23;20094;-83
2023/03/10 02:21:04;;;;;;;27.83;17.30;;;1.30;99.90;;;;;;6059782;23;19917;-83
2023/03/10 02:24:06;;;;;;;19.38;14.68;;;0.20;99.90;;;;;;6042521;23;20025;-83
2023/03/10 02:27:09;;;;;;;19.15;14.25;;;0.50;99.90;;;;;;6040008;23;20586;-83
2023/03/10 02:29:59;;;;;;;17.80;14.07;;;1.00;99.90;;;;;;6041686;23;20150;-83
2023/03/10 02:33:02;;;;;;;19.60;14.73;;;0.90;99.90;;;;;;6065839;23;20011;-83
2023/03/10 02:36:09;;;;;;;21.43;15.83;;;0.30;99.90;;;;;;6021532;23;20015;-83
2023/03/10 02:38:38;;;;;;;17.63;13.25;;;1.00;99.90;;;;;;6066602;23;20031;-82
2023/03/10 02:41:31;;;;;;;22.00;16.55;;;1.10;99.90;;;;;;6040325;23;20106;-82
2023/03/10 02:44:21;;;;;;;22.13;17.15;;;1.00;99.90;;;;;;6063074;23;20019;-82
2023/03/10 02:46:47;;;;;;;22.60;17.77;;;1.00;99.90;;;;;;6065380;23;20085;-82
2023/03/10 02:49:17;;;;;;;20.50;16.55;;;1.00;99.90;;;;;;6065216;23;20026;-82
2023/03/10 02:51:45;;;;;;;22.20;17.77;;;1.00;99.90;;;;;;6088507;23;20019;-82
2023/03/10 02:54:11;;;;;;;22.85;19.02;;;1.50;99.90;;;;;;6064761;23;20022;-82
2023/03/10 02:56:45;;;;;;;26.70;20.20;;;1.00;99.90;;;;;;6039538;23;20573;-83
2023/03/10 02:59:16;;;;;;;26.08;20.17;;;0.90;99.90;;;;;;6040185;23;20015;-82
2023/03/10 03:01:52;;;;;;;28.42;21.98;;;0.90;99.90;;;;;;6063710;23;20027;-82
2023/03/10 03:04:21;;;;;;;29.27;22.17;;;1.00;99.90;;;;;;6063612;23;20482;-82
2023/03/10 03:06:47;;;;;;;26.58;21.35;;;1.00;99.90;;;;;;6041649;23;20030;-83
2023/03/10 03:09:13;;;;;;;28.50;21.55;;;1.10;99.90;;;;;;6041608;23;20041;-82
2023/03/10 03:11:42;;;;;;;28.27;21.25;;;1.00;99.90;;;;;;6040564;23;20022;-83
2023/03/10 03:14:10;;;;;;;31.83;21.60;;;1.50;99.90;;;;;;6039473;23;20018;-82
2023/03/10 03:16:37;;;;;;;27.98;21.10;;;1.10;99.90;;;;;;6041751;23;20019;-82
2023/03/10 03:19:02;;;;;;;31.10;23.05;;;1.00;99.90;;;;;;6042819;23;20026;-82
2023/03/10 03:21:30;;;;;;;29.40;20.55;;;1.10;99.90;;;;;;6042583;23;20019;-82
2023/03/10 03:23:56;;;;;;;26.17;20.40;;;1.30;99.90;;;;;;6063163;23;20015;-82
2023/03/10 03:26:25;;;;;;;25.45;19.83;;;1.50;99.90;;;;;;6040657;23;20025;-82
2023/03/10 03:28:55;;;;;;;22.67;18.35;;;1.10;99.90;;;;;;6064016;23;20087;-82
2023/03/10 03:31:24;;;;;;;25.95;17.90;;;1.10;99.90;;;;;;6062592;23;20078;-83
2023/03/10 03:33:52;;;;;;;21.58;17.27;;;0.80;99.90;;;;;;6063947;23;20021;-82
2023/03/10 03:36:20;;;;;;;22.15;17.90;;;1.20;99.90;;;;;;6040722;23;20384;-82
2023/03/10 03:38:49;;;;;;;23.63;17.55;;;1.10;99.90;;;;;;6064973;23;20514;-82
2023/03/10 03:41:15;;;;;;;21.00;15.75;;;1.10;99.90;;;;;;6041907;23;20023;-82
2023/03/10 03:43:41;;;;;;;19.40;14.68;;;2.00;99.90;;;;;;6041437;23;20019;-82
2023/03/10 03:46:08;;;;;;;19.13;14.90;;;1.10;99.90;;;;;;6040808;23;20026;-82
2023/03/10 03:48:33;;;;;;;19.95;15.15;;;1.10;99.90;;;;;;6041389;23;20054;-82
2023/03/10 03:51:00;;;;;;;18.15;13.02;;;1.10;99.90;;;;;;6043171;23;20026;-82
2023/03/10 03:53:26;;;;;;;16.73;11.85;;;0.60;99.90;;;;;;6042584;23;20089;-82
2023/03/10 03:55:52;;;;;;;16.70;13.35;;;1.70;99.90;;;;;;6041340;23;20051;-82
2023/03/10 03:58:18;;;;;;;17.67;13.13;;;1.00;99.90;;;;;;6042257;23;20026;-82
2023/03/10 04:00:47;;;;;;;16.42;12.45;;;1.60;99.90;;;;;;6043188;23;20019;-82
2023/03/10 04:03:18;;;;;;;16.63;12.32;;;1.90;99.90;;;;;;6040950;23;20093;-82
2023/03/10 04:05:44;;;;;;;17.67;12.98;;;1.10;99.90;;;;;;6066998;23;20018;-82
2023/03/10 04:08:11;;;;;;;15.68;11.85;;;1.10;99.90;;;;;;6043242;23;20314;-82
2023/03/10 04:10:37;;;;;;;15.40;12.20;;;1.20;99.90;;;;;;6042057;23;20026;-81
2023/03/10 04:13:03;;;;;;;16.25;11.98;;;1.30;99.90;;;;;;6042062;23;20078;-82
2023/03/10 04:15:29;;;;;;;15.95;12.23;;;1.00;99.90;;;;;;6064839;23;20046;-82
2023/03/10 04:17:56;;;;;;;14.52;10.73;;;1.00;99.90;;;;;;6040419;23;20019;-82
2023/03/10 04:20:25;;;;;;;19.08;12.40;;;0.90;99.90;;;;;;6041138;23;20023;-82
2023/03/10 04:22:54;;;;;;;17.58;12.30;;;1.10;99.90;;;;;;6040827;23;20023;-82
2023/03/10 04:25:20;;;;;;;16.48;12.20;;;1.10;99.90;;;;;;6040746;23;20026;-82
2023/03/10 04:27:46;;;;;;;16.05;12.52;;;2.10;99.90;;;;;;6019103;23;20014;-81
2023/03/10 04:30:13;;;;;;;17.55;11.77;;;1.10;99.90;;;;;;6018371;23;20030;-82
2023/03/10 04:32:39;;;;;;;16.65;12.30;;;1.10;99.90;;;;;;6042180;23;20018;-81
2023/03/10 04:35:09;;;;;;;15.77;11.90;;;1.30;99.90;;;;;;6017408;23;20078;-82
2023/03/10 04:37:35;;;;;;;14.00;11.75;;;1.00;99.90;;;;;;6043528;23;20015;-82
2023/03/10 04:40:07;;;;;;;16.77;12.73;;;1.70;99.90;;;;;;6019613;23;20911;-82
2023/03/10 04:42:33;;;;;;;14.18;11.75;;;1.00;99.90;;;;;;6043677;23;20021;-82
2023/03/10 04:44:58;;;;;;;14.93;11.57;;;1.30;99.90;;;;;;6018932;23;20391;-82
2023/03/10 04:47:24;;;;;;;13.82;11.27;;;2.50;99.90;;;;;;6018774;23;20018;-82
2023/03/10 04:49:50;;;;;;;15.23;11.32;;;1.30;99.90;;;;;;6018594;23;20082;-83
2023/03/10 04:52:16;;;;;;;14.48;11.82;;;1.10;99.90;;;;;;6017095;23;20050;-82
2023/03/10 04:54:42;;;;;;;15.30;11.68;;;1.00;99.90;;;;;;6017426;23;20512;-82
2023/03/10 04:57:28;;;;;;;15.32;11.82;;;1.10;99.90;;;;;;6017870;23;20026;-81
2023/03/10 05:00:16;;;;;;;;;;;1.00;99.90;;;;;;6069436;23;20022;-82
2023/03/10 05:03:36;;;;;;;15.82;12.30;;;1.00;99.90;;;;;;6065405;23;19913;-82
2023/03/10 05:14:53;;;;;;;15.90;11.27;;;1.20;99.90;;;;;;6067871;23;20026;-83
2023/03/10 05:29:09;;;;;;;17.13;13.63;;;0.60;99.90;;;;;;6070196;23;20459;-81
2023/03/10 05:31:54;;;;;;;18.48;12.90;;;1.50;99.90;;;;;;6046497;23;20051;-82
2023/03/10 05:34:31;;;;;;;18.60;13.88;;;1.00;99.90;;;;;;6017390;23;20015;-80
2023/03/10 05:37:22;;;;;;;18.92;13.63;;;1.10;99.90;;;;;;6067451;23;20069;-84
2023/03/10 05:39:48;;;;;;;18.58;13.75;;;0.90;99.90;;;;;;6015898;23;20073;-83
2023/03/10 05:42:15;;;;;;;20.90;14.93;;;1.00;99.90;;;;;;6016722;23;20070;-83
2023/03/10 05:44:42;;;;;;;19.77;14.88;;;1.10;99.90;;;;;;6040426;23;20527;-85
2023/03/10 05:47:18;;;;;;;19.98;15.40;;;1.50;99.90;;;;;;6019119;23;20027;-82
2023/03/10 05:50:08;;;;;;;22.33;15.90;;;1.00;99.90;;;;;;6043006;23;20730;-83
2023/03/10 05:52:46;;;;;;;18.05;13.88;;;1.20;99.90;;;;;;6066762;23;20025;-83
2023/03/10 05:55:35;;;;;;;19.10;15.00;;;1.20;99.90;;;;;;6024858;23;20022;-83
2023/03/10 05:58:04;;;;;;;19.23;15.07;;;1.10;99.90;;;;;;6018382;23;20516;-85
2023/03/10 06:00:51;;;;;;;22.27;16.00;;;1.10;99.90;;;;;;5997098;23;20058;-83
2023/03/10 06:03:37;;;;;;;24.67;17.88;;;1.20;99.90;;;;;;5944837;23;20452;-88
2023/03/10 06:06:56;;;;;;;22.55;17.65;;;1.00;99.90;;;;;;5980031;23;20342;-85
2023/03/10 06:09:37;;;;;;;24.83;18.90;;;1.30;99.90;;;;;;6036256;23;20019;-83
2023/03/10 06:12:09;;;;;;;26.15;19.33;;;1.10;99.90;;;;;;6067398;23;20381;-84
2023/03/10 06:15:01;;;;;;;25.13;19.98;;;1.30;99.90;;;;;;6046594;23;20513;-82
2023/03/10 06:17:34;;;;;;;27.35;20.52;;;1.10;99.90;;;;;;6018770;23;20022;-81
2023/03/10 06:20:07;;;;;;;29.20;20.45;;;1.10;99.90;;;;;;6019088;23;20046;-82
2023/03/10 06:23:22;;;;;;;29.85;21.92;;;0.70;99.90;;;;;;6043092;23;20022;-81
2023/03/10 06:30:27;;;;;;;31.65;22.92;;;1.20;99.90;;;;;;6066191;23;20026;-83
2023/03/10 06:33:51;;;;;;;31.73;21.83;;;0.40;99.90;;;;;;6048042;23;20463;-84
2023/03/10 06:36:18;;;;;;;31.85;22.10;;;1.10;99.90;;;;;;6064227;23;20482;-79
2023/03/10 06:38:47;;;;;;;37.15;24.52;;;1.10;99.90;;;;;;6042498;23;20025;-82
2023/03/10 06:41:13;;;;;;;38.15;24.02;;;1.40;99.90;;;;;;6043120;23;20536;-83
2023/03/10 06:43:39;;;;;;;33.75;24.98;;;1.60;99.90;;;;;;6042727;23;20019;-82
2023/03/10 06:46:08;;;;;;;34.22;23.33;;;1.10;99.90;;;;;;6018521;23;20050;-82
2023/03/10 06:48:35;;;;;;;32.35;22.85;;;1.10;99.90;;;;;;6018635;23;20018;-83
2023/03/10 06:54:36;;;;;;;35.58;24.65;;;1.20;99.90;;;;;;6050554;23;20439;-80
2023/03/10 06:57:06;;;;;;;33.67;23.75;;;1.20;99.90;;;;;;6019710;23;20015;-83
2023/03/10 07:00:10;;;;;;;35.20;24.60;;;1.20;99.90;;;;;;6070231;23;20026;-85
2023/03/10 07:03:25;;;;;;;39.45;25.92;;;2.10;99.90;;;;;;6067780;23;20022;-85
2023/03/10 07:05:51;;;;;;;32.08;23.38;;;1.60;99.90;;;;;;6028536;23;20479;-82
2023/03/10 07:08:17;;;;;;;34.95;24.20;;;0.80;99.90;;;;;;6020137;23;20011;-82
2023/03/10 07:10:43;;;;;;;35.50;23.75;;;1.20;99.90;;;;;;6043346;23;20019;-82
2023/03/10 07:13:14;;;;;;;33.53;22.77;;;1.20;99.90;;;;;;6020560;23;20017;-82
2023/03/10 07:15:40;;;;;;;34.25;24.23;;;1.40;99.90;;;;;;6043211;23;20029;-81
2023/03/10 07:18:06;;;;;;;36.22;23.70;;;1.20;99.90;;;;;;6043401;23;20341;-84
2023/03/10 07:20:37;;;;;;;31.15;22.73;;;1.30;99.90;;;;;;6043807;23;20459;-83
2023/03/10 07:23:06;;;;;;;33.30;24.00;;;1.80;99.90;;;;;;6041984;23;20019;-82
2023/03/10 07:25:34;;;;;;;31.77;22.58;;;1.20;99.90;;;;;;6019570;23;20022;-81
2023/03/10 07:28:01;;;;;;;31.08;22.10;;;1.70;99.90;;;;;;6042822;23;20078;-82
2023/03/10 07:30:26;;;;;;;27.17;20.00;;;1.00;99.90;;;;;;6019219;23;20090;-84
2023/03/10 07:32:52;;;;;;;29.38;21.08;;;1.50;99.90;;;;;;6019681;23;20042;-82
2023/03/10 07:35:18;;;;;;;31.05;22.17;;;1.30;99.90;;;;;;6020739;23;20412;-83
2023/03/10 07:37:44;;;;;;;32.00;23.25;;;1.60;99.90;;;;;;6020325;23;20103;-82
2023/03/10 07:40:10;;;;;;;28.40;21.40;;;1.30;99.90;;;;;;6020068;23;20018;-82
2023/03/10 07:42:36;;;;;;;27.17;19.83;;;1.30;99.90;;;;;;6044025;23;20015;-82
2023/03/10 07:45:03;;;;;;;31.92;22.83;;;1.50;99.90;;;;;;6043552;23;20085;-85
2023/03/10 07:47:29;;;;;;;25.85;20.08;;;1.20;99.90;;;;;;6043851;23;20022;-82
2023/03/10 07:49:56;;;;;;;28.33;20.45;;;1.80;99.90;;;;;;6043764;23;20460;-83
2023/03/10 07:52:21;;;;;;;29.60;21.33;;;1.20;99.90;;;;;;6019885;23;20389;-84
2023/03/10 07:54:47;;;;;;;28.80;21.40;;;1.80;99.90;;;;;;6019327;23;20015;-83
2023/03/10 07:57:14;;;;;;;28.13;20.30;;;1.30;99.90;;;;;;6018889;23;20026;-82
2023/03/10 07:59:41;;;;;;;25.98;19.52;;;1.60;99.90;;;;;;6043100;23;20014;-83
2023/03/10 08:02:13;;;;;;;24.80;19.48;;;1.30;99.90;;;;;;6019924;23;20091;-82
2023/03/10 08:04:39;;;;;;;25.65;19.35;;;1.40;99.90;;;;;;6043845;23;20019;-82
2023/03/10 08:07:06;;;;;;;26.90;20.10;;;1.30;99.90;;;;;;6044050;23;20023;-82
2023/03/10 08:09:32;;;;;;;24.83;19.80;;;1.40;99.90;;;;;;6043725;23;20011;-81
2023/03/10 08:11:58;;;;;;;25.55;19.80;;;1.60;99.90;;;;;;6020170;23;20090;-83
2023/03/10 08:14:26;;;;;;;27.88;21.27;;;1.30;99.90;;;;;;6019530;23;20015;-83
2023/03/10 08:16:55;;;;;;;25.25;19.30;;;2.50;99.90;;;;;;6043330;23;20019;-82
2023/03/10 08:19:25;;;;;;;25.42;18.92;;;2.30;99.90;;;;;;6020045;23;20026;-83
2023/03/10 08:21:53;;;;;;;24.75;18.58;;;1.40;99.90;;;;;;6043507;23;20453;-83
2023/03/10 08:24:19;;;;;;;24.85;18.63;;;2.00;99.90;;;;;;6043194;23;20015;-83
2023/03/10 08:26:45;;;;;;;23.83;17.38;;;1.30;99.90;;;;;;6042382;23;20051;-84
2023/03/10 08:29:11;;;;;;;22.23;17.17;;;1.30;99.90;;;;;;6019011;23;20444;-83
2023/03/10 08:31:37;;;;;;;23.92;18.85;;;1.40;99.90;;;;;;6020039;23;20025;-83
2023/03/10 08:34:02;;;;;;;23.35;18.58;;;1.30;99.90;;;;;;6021615;23;20094;-82
2023/03/10 08:36:29;;;;;;;22.17;17.45;;;1.40;99.90;;;;;;6022032;23;20089;-83
2023/03/10 08:38:59;;;;;;;23.15;17.77;;;2.40;99.90;;;;;;6044919;23;20021;-83
2023/03/10 08:41:31;;;;;;;22.60;18.13;;;1.90;99.90;;;;;;6044910;23;20058;-82
2023/03/10 08:43:59;;;;;;;25.85;19.15;;;1.80;99.90;;;;;;6044650;23;20522;-84
2023/03/10 08:46:55;;;;;;;24.05;19.52;;;1.70;99.90;;;;;;6007100;23;20012;-84
2023/03/10 08:49:31;;;;;;;22.40;16.77;;;1.00;99.90;;;;;;5988122;23;20389;-82
2023/03/10 08:52:06;;;;;;;22.27;17.73;;;1.40;99.90;;;;;;6037909;23;20015;-82
2023/03/10 08:54:32;;;;;;;23.60;18.55;;;2.20;99.90;;;;;;6037491;23;20019;-83
2023/03/10 08:56:58;;;;;;;24.48;18.75;;;1.40;99.90;;;;;;6038447;23;20015;-82
2023/03/10 08:59:27;;;;;;;24.20;18.17;;;1.40;99.90;;;;;;5989684;23;20015;-83
2023/03/10 09:01:56;;;;;;;24.20;18.80;;;1.40;99.90;;;;;;6038454;23;20023;-82
2023/03/10 09:04:22;;;;;;;25.30;19.08;;;1.40;99.90;;;;;;6038120;23;20022;-82
2023/03/10 09:06:53;;;;;;;25.13;18.58;;;1.50;99.90;;;;;;6038192;23;20030;-82
2023/03/10 09:09:24;;;;;;;22.77;17.45;;;1.40;99.90;;;;;;6038364;23;20011;-82
2023/03/10 09:11:53;;;;;;;22.00;17.52;;;2.30;99.90;;;;;;6063355;23;20016;-82
2023/03/10 09:14:19;;;;;;;22.25;18.40;;;1.90;99.90;;;;;;6037903;23;20020;-82
2023/03/10 09:16:50;;;;;;;23.42;18.05;;;1.40;99.90;;;;;;6038521;23;20067;-82
2023/03/10 09:19:16;;;;;;;24.50;17.77;;;1.20;99.90;;;;;;6038360;23;20102;-82
2023/03/10 09:21:42;;;;;;;25.55;17.80;;;1.90;99.90;;;;;;6037253;23;20445;-84
2023/03/10 09:24:09;;;;;;;21.90;17.13;;;2.30;99.90;;;;;;6034342;23;20094;-83
2023/03/10 09:26:35;;;;;;;23.25;17.92;;;1.40;99.90;;;;;;5985464;23;20023;-83
2023/03/10 09:29:01;;;;;;;20.88;16.83;;;1.60;99.90;;;;;;6034617;23;20026;-83
2023/03/10 09:31:34;;;;;;;24.40;17.75;;;1.40;99.90;;;;;;6040739;23;20083;-82
2023/03/10 09:34:00;;;;;;;22.60;16.92;;;1.40;99.90;;;;;;6016748;23;20015;-83
2023/03/10 09:36:29;;;;;;;23.42;17.42;;;2.20;99.90;;;;;;6040523;23;20440;-83
2023/03/10 09:38:57;;;;;;;23.35;18.00;;;1.90;99.90;;;;;;6040044;23;20023;-82
2023/03/10 09:42:03;;;;;;;22.42;17.15;;;1.40;99.90;;;;;;6040224;23;20393;-83
2023/03/10 09:45:28;;;;;;;20.23;16.17;;;0.60;99.90;;;;;;6039282;23;20050;-83
2023/03/10 09:48:10;;;;;;;22.55;16.10;;;1.40;99.90;;;;;;5902328;24;20024;-83
2023/03/10 09:50:49;;;;;;;21.33;16.45;;;1.60;99.90;;;;;;5904280;24;20025;-83
2023/03/10 09:53:28;;;;;;;21.25;16.67;;;1.50;99.90;;;;;;5975054;23;20344;-82
2023/03/10 09:55:54;;;;;;;24.17;17.38;;;1.50;99.90;;;;;;6040349;23;20015;-83
2023/03/10 09:58:38;;;;;;;19.08;14.55;;;1.40;99.90;;;;;;6038733;23;20022;-83
2023/03/10 10:01:12;;;;;;;21.15;15.57;;;1.50;99.90;;;;;;6040964;23;20389;-83
2023/03/10 10:03:51;;;;;;;21.17;16.02;;;1.70;99.90;;;;;;6039310;23;20031;-83
2023/03/10 10:06:31;;;;;;;22.02;16.73;;;1.70;99.90;;;;;;6039723;23;20356;-83
2023/03/10 10:09:19;;;;;;;23.05;17.15;;;1.70;99.90;;;;;;6040179;23;20022;-82
2023/03/10 10:12:59;;;;;;;;;;;;;;;;;;;;;
2023/03/10 10:15:53;;;;;;;25.08;18.25;;;1.50;99.90;;;;;;6033762;23;20016;-82
2023/03/10 10:29:33;;;;;;;28.98;20.33;;;1.80;99.90;;;;;;5896671;24;20028;-83
2023/03/10 10:36:01;;;;;;;;;;;;;;;;;;;;;
2023/03/10 10:42:30;;;;;;;29.05;21.13;;;2.40;99.90;;;;;;6009779;23;20363;-81
2023/03/10 10:45:53;;;;;;;27.88;20.67;;;1.40;99.90;;;;;;6033550;23;20019;-82
2023/03/10 10:48:44;;;;;;;29.17;21.25;;;2.50;99.90;;;;;;6008930;23;20348;-83
2023/03/10 10:54:31;;;;;;;28.80;20.73;;;1.40;99.90;;;;;;6022677;23;20429;-83
2023/03/10 10:56:59;;;;;;;30.38;21.73;;;0.70;99.90;;;;;;6035585;23;20078;-82
2023/03/10 10:59:34;;;;;;;30.45;21.30;;;1.30;99.90;;;;;;6032961;23;20516;-82
2023/03/10 11:02:21;;;;;;;30.08;22.60;;;1.80;99.90;;;;;;6058089;23;20117;-84
2023/03/10 11:08:59;;;;;;;;;;;;;;;;;;;;;
2023/03/10 11:11:53;;;;;;;27.23;20.27;;;0.50;99.90;;;;;;5927436;23;20026;-83
2023/03/10 11:14:46;;;;;;;27.98;21.67;;;1.20;99.90;;;;;;6032374;23;20015;-84
2023/03/10 11:18:11;;;;;;;27.13;21.35;;;0.40;99.90;;;;;;6033180;23;20078;-83
2023/03/10 11:20:49;;;;;;;28.00;20.88;;;1.40;99.90;;;;;;6035982;23;20016;-84
2023/03/10 11:23:50;;;;;;;31.40;22.15;;;1.30;99.90;;;;;;6012567;23;20023;-84
2023/03/10 11:26:51;;;;;;;;;;;;;;;;;;;;;
2023/03/10 11:29:58;;;;;;;30.13;20.65;;;1.70;99.90;;;;;;6008810;23;20015;-82
2023/03/10 11:32:47;;;;;;;28.15;20.42;;;0.50;99.90;;;;;;6034395;23;20333;-81
2023/03/10 11:35:22;;;;;;;27.33;19.73;;;1.30;99.90;;;;;;6034807;23;20431;-81
2023/03/10 11:38:18;;;;;;;29.80;21.10;;;1.30;99.90;;;;;;6035393;23;20023;-82
2023/03/10 11:40:47;;;;;;;24.98;19.02;;;1.70;99.90;;;;;;5988168;23;20023;-81
2023/03/10 11:43:35;;;;;;;28.23;20.13;;;1.70;99.90;;;;;;5986224;23;20471;-81
2023/03/10 11:46:24;;;;;;;29.85;20.48;;;1.30;99.90;;;;;;6032474;23;20022;-83
2023/03/10 11:49:05;;;;;;;27.02;19.67;;;1.30;99.90;;;;;;6034499;23;20019;-82
2023/03/10 11:51:44;;;;;;;26.38;18.50;;;1.20;99.90;;;;;;6033395;23;20366;-80
2023/03/10 11:54:25;;;;;;;27.75;18.98;;;1.30;99.90;;;;;;6033114;23;20065;-80
2023/03/10 11:56:51;;;;;;;25.88;19.40;;;1.20;99.90;;;;;;6032364;23;20018;-79
2023/03/10 11:59:26;;;;;;;25.10;17.85;;;1.50;99.90;;;;;;6009343;23;20086;-80
2023/03/10 12:02:03;;;;;;;26.40;18.30;;;1.80;99.90;;;;;;6032009;23;20030;-80
2023/03/10 12:04:40;;;;;;;28.02;18.98;;;1.30;99.90;;;;;;6008992;23;20038;-79
2023/03/10 12:07:24;;;;;;;26.25;18.17;;;1.40;99.90;;;;;;6058187;23;20326;-80
2023/03/10 12:09:56;;;;;;;28.45;19.92;;;1.30;99.90;;;;;;6011664;23;20795;-79
2023/03/10 12:12:32;;;;;;;28.30;18.67;;;2.10;99.90;;;;;;6038572;23;20082;-81
2023/03/10 12:15:01;;;;;;;25.85;18.67;;;1.20;99.90;;;;;;6060324;23;20043;-81
2023/03/10 12:17:28;;;;;;;29.25;19.20;;;1.20;99.90;;;;;;6036744;23;20015;-79
2023/03/10 12:20:11;;;;;;;25.95;18.65;;;2.00;99.90;;;;;;6035805;23;20030;-80
2023/03/10 12:22:51;;;;;;;25.67;18.17;;;1.30;99.90;;;;;;6036305;23;20221;-79
2023/03/10 12:25:29;;;;;;;26.50;19.63;;;1.30;99.90;;;;;;6037887;23;20023;-80
2023/03/10 12:28:16;;;;;;;28.60;19.08;;;1.30;99.90;;;;;;6038049;23;20043;-81
2023/03/10 12:30:59;;;;;;;24.77;18.38;;;1.30;99.90;;;;;;6061164;23;20055;-82
2023/03/10 12:33:32;;;;;;;25.65;18.02;;;1.30;99.90;;;;;;6035827;23;20022;-81
2023/03/10 12:36:04;;;;;;;24.75;17.98;;;0.80;99.90;;;;;;6037606;23;20026;-82
2023/03/10 12:38:51;;;;;;;25.65;18.50;;;1.30;99.90;;;;;;6013267;23;20016;-81
2023/03/10 12:41:25;;;;;;;24.25;17.63;;;1.30;99.90;;;;;;6038115;23;20026;-81
2023/03/10 12:43:52;;;;;;;22.23;16.80;;;2.50;99.90;;;;;;6038087;23;20075;-82
2023/03/10 12:46:29;;;;;;;26.35;18.33;;;1.40;99.90;;;;;;6038382;23;20019;-81
2023/03/10 12:49:15;;;;;;;24.55;18.08;;;1.20;99.90;;;;;;6036595;23;20015;-80
2023/03/10 12:51:47;;;;;;;24.35;16.00;;;1.90;99.90;;;;;;6035954;23;20027;-81
2023/03/10 12:54:36;;;;;;;26.13;17.88;;;1.60;99.90;;;;;;6037287;23;20019;-82
2023/03/10 12:57:26;;;;;;;23.60;17.27;;;1.30;99.90;;;;;;6037545;23;20086;-81
2023/03/10 13:00:15;;;;;;;24.48;17.10;;;2.00;99.90;;;;;;5977289;23;20019;-81
2023/03/10 13:02:55;;;;;;;24.70;17.15;;;1.20;99.90;;;;;;6036943;23;20019;-81
2023/03/10 13:05:28;;;;;;;23.10;16.88;;;1.30;99.90;;;;;;6034859;23;20019;-81
2023/03/10 13:08:01;;;;;;;25.73;16.75;;;1.30;99.90;;;;;;6036886;23;20035;-80
2023/03/10 13:10:31;;;;;;;20.70;15.93;;;2.00;99.90;;;;;;6013119;23;20026;-82
2023/03/10 13:13:01;;;;;;;24.10;15.93;;;0.50;99.90;;;;;;6036759;23;20094;-82
2023/03/10 13:15:32;;;;;;;20.38;15.55;;;1.30;99.90;;;;;;6035900;23;20022;-81
2023/03/10 13:18:19;;;;;;;21.25;15.50;;;1.30;99.90;;;;;;6037678;23;20023;-82
2023/03/10 13:20:46;;;;;;;20.45;15.15;;;1.70;99.90;;;;;;6037832;23;20023;-82
2023/03/10 13:23:33;;;;;;;20.40;14.25;;;2.20;99.90;;;;;;6038099;23;20112;-81
2023/03/10 13:26:05;;;;;;;19.95;14.27;;;1.30;99.90;;;;;;6038587;23;20574;-82
2023/03/10 13:28:33;;;;;;;17.30;13.50;;;1.30;99.90;;;;;;6036745;23;20019;-81
2023/03/10 13:31:13;;;;;;;21.08;15.18;;;1.70;99.90;;;;;;6038316;23;20043;-82
2023/03/10 13:33:39;;;;;;;18.45;12.93;;;1.30;99.90;;;;;;6037340;23;20019;-81
2023/03/10 13:36:28;;;;;;;19.92;14.18;;;2.10;99.90;;;;;;6037339;23;20413;-81
2023/03/10 13:38:56;;;;;;;18.08;14.07;;;1.20;99.90;;;;;;6038643;23;20611;-81
2023/03/10 13:41:22;;;;;;;18.30;14.05;;;1.40;99.90;;;;;;6037742;23;20026;-81
2023/03/10 13:43:50;;;;;;;16.33;12.65;;;1.30;99.90;;;;;;6037401;23;20466;-81
2023/03/10 13:46:21;;;;;;;19.58;13.65;;;0.90;99.90;;;;;;6014186;23;20016;-81
2023/03/10 13:48:48;;;;;;;16.80;13.32;;;1.30;99.90;;;;;;6037724;23;20019;-81
2023/03/10 13:51:20;;;;;;;15.80;12.38;;;1.40;99.90;;;;;;6036134;23;20043;-82
2023/03/10 13:53:51;;;;;;;17.42;12.98;;;1.70;99.90;;;;;;5989927;23;20445;-82
2023/03/10 13:56:18;;;;;;;16.48;12.63;;;1.20;99.90;;;;;;6036352;23;20015;-82
2023/03/10 13:58:46;;;;;;;15.93;12.68;;;1.20;99.90;;;;;;6033663;23;20032;-82
2023/03/10 14:01:20;;;;;;;15.82;12.27;;;1.20;99.90;;;;;;5987695;23;20029;-81
2023/03/10 14:04:07;;;;;;;17.42;12.05;;;1.30;99.90;;;;;;5986617;23;20027;-82
2023/03/10 14:06:34;;;;;;;15.85;12.48;;;1.20;99.90;;;;;;6033464;23;20470;-80
2023/03/10 14:09:16;;;;;;;17.48;13.15;;;1.20;99.90;;;;;;6057760;23;20104;-80
2023/03/10 14:11:45;;;;;;;16.10;12.60;;;1.20;99.90;;;;;;6036307;23;20023;-80
2023/03/10 14:14:12;;;;;;;17.98;13.82;;;1.20;99.90;;;;;;6036168;23;20501;-80
2023/03/10 14:16:58;;;;;;;17.67;14.05;;;1.30;99.90;;;;;;6013085;23;20019;-80
2023/03/10 14:19:42;;;;;;;18.33;14.18;;;1.20;99.90;;;;;;5990588;23;20061;-80
2023/03/10 14:22:30;;;;;;;18.58;14.27;;;2.40;99.90;;;;;;6037045;23;20052;-81
2023/03/10 14:24:58;;;;;;;17.75;14.63;;;1.20;99.90;;;;;;6036931;23;20030;-80
2023/03/10 14:27:25;;;;;;;17.58;14.40;;;2.30;99.90;;;;;;6013558;23;20114;-80
2023/03/10 14:29:55;;;;;;;20.35;16.40;;;1.50;99.90;;;;;;6036979;23;20491;-80
2023/03/10 14:32:22;;;;;;;19.98;15.48;;;1.80;99.90;;;;;;6013657;23;20480;-80
2023/03/10 14:34:48;;;;;;;19.00;15.90;;;1.90;99.90;;;;;;6012836;23;20020;-80
2023/03/10 14:37:14;;;;;;;18.52;14.45;;;1.30;99.90;;;;;;6014850;23;20022;-80
2023/03/10 14:39:40;;;;;;;18.30;15.20;;;2.00;99.90;;;;;;6037102;23;20055;-80
2023/03/10 14:42:09;;;;;;;20.25;15.05;;;1.30;99.90;;;;;;6014636;23;20054;-80
2023/03/10 14:44:35;;;;;;;19.67;14.57;;;1.30;99.90;;;;;;6037723;23;20054;-80
2023/03/10 14:47:00;;;;;;;18.05;13.77;;;1.60;99.90;;;;;;6035268;23;20068;-80
2023/03/10 14:49:26;;;;;;;19.23;14.10;;;1.20;99.90;;;;;;6011371;23;20520;-80
2023/03/10 14:51:52;;;;;;;18.05;13.38;;;1.30;99.90;;;;;;6029985;23;20719;-81
2023/03/10 14:54:22;;;;;;;18.08;12.82;;;1.80;99.90;;;;;;6035714;23;20431;-82
2023/03/10 14:56:51;;;;;;;16.73;13.02;;;1.30;99.90;;;;;;6035959;23;20020;-82
2023/03/10 14:59:17;;;;;;;18.27;13.18;;;1.40;99.90;;;;;;6034175;23;20019;-81
2023/03/10 15:01:43;;;;;;;18.33;14.13;;;1.80;99.90;;;;;;6034400;23;20118;-81
2023/03/10 15:04:14;;;;;;;16.23;12.23;;;1.30;99.90;;;;;;6011899;23;20023;-82
2023/03/10 15:06:41;;;;;;;18.90;14.02;;;1.30;99.90;;;;;;6036262;23;20042;-81
2023/03/10 15:09:07;;;;;;;21.13;15.40;;;1.90;99.90;;;;;;6034037;23;20472;-82
2023/03/10 15:11:33;;;;;;;20.08;15.35;;;1.30;99.90;;;;;;6034132;23;20111;-82
2023/03/10 15:13:59;;;;;;;19.40;14.82;;;1.30;99.90;;;;;;6031525;23;20098;-82
2023/03/10 15:16:25;;;;;;;20.58;16.00;;;1.30;99.90;;;;;;6033917;23;20558;-82
2023/03/10 15:18:52;;;;;;;19.70;16.25;;;1.90;99.90;;;;;;6035538;23;20094;-81
2023/03/10 15:21:18;;;;;;;19.60;15.73;;;1.30;99.90;;;;;;6035784;23;20030;-81
2023/03/10 15:23:43;;;;;;;22.67;17.65;;;1.30;99.90;;;;;;6034250;23;20071;-82
2023/03/10 15:26:13;;;;;;;22.45;16.75;;;1.30;99.90;;;;;;6035617;23;20030;-81
2023/03/10 15:28:39;;;;;;;21.00;16.38;;;1.30;99.90;;;;;;5989274;23;20020;-81
2023/03/10 15:31:05;;;;;;;18.75;14.25;;;1.30;99.90;;;;;;6035510;23;20023;-82
2023/03/10 15:33:32;;;;;;;16.48;13.73;;;1.30;99.90;;;;;;6033782;23;20101;-82
2023/03/10 15:35:57;;;;;;;17.10;12.85;;;1.30;99.90;;;;;;6034942;23;20019;-82